Time;durP1;ratioP1;P1;durP2;ratioP2;P2;SDS_P1;SDS_P2;PMS_P1;PMS_P2;Temp;Humidity;BMP_temperature;BMP_pressure;BME280_temperature;BME280_humidity;BME280_pressure;Samples;Min_cycle;Max_cycle;Signal;HPM_P1;HPM_P2
2022/10/21 00:00:24;;;;;;;;;;;10.70;99.90;;;;;;6119151;23;19943;-65
2022/10/21 00:02:50;;;;;;;;;;;10.70;99.90;;;;;;6118931;23;19948;-65
2022/10/21 00:05:16;;;;;;;;;;;10.70;99.90;;;;;;6119420;23;20248;-65
2022/10/21 00:07:41;;;;;;;;;;;10.70;99.90;;;;;;6119727;23;19921;-65
2022/10/21 00:10:07;;;;;;;;;;;10.70;99.90;;;;;;6119642;23;19979;-65
2022/10/21 00:12:33;;;;;;;;;;;10.60;99.90;;;;;;6118996;23;19925;-67
2022/10/21 00:14:58;;;;;;;;;;;10.60;99.90;;;;;;6119859;23;20032;-66
2022/10/21 00:17:24;;;;;;;;;;;10.60;99.90;;;;;;6118378;23;20286;-65
2022/10/21 00:19:50;;;;;;;;;;;10.50;99.90;;;;;;6119730;23;20340;-66
2022/10/21 00:22:15;;;;;;;;;;;10.50;99.90;;;;;;6119796;23;20013;-65
2022/10/21 00:24:41;;;;;;;;;;;10.60;99.90;;;;;;6119906;23;19921;-65
2022/10/21 00:27:06;;;;;;;;;;;10.50;99.90;;;;;;6119352;23;19928;-66
2022/10/21 00:29:32;;;;;;;;;;;10.50;99.90;;;;;;6117625;23;19974;-65
2022/10/21 00:31:57;;;;;;;;;;;10.50;99.90;;;;;;6118937;23;19974;-65
2022/10/21 00:34:23;;;;;;;;;;;10.40;99.90;;;;;;6119442;23;19949;-66
2022/10/21 00:36:48;;;;;;;;;;;10.30;99.90;;;;;;6119096;23;19928;-64
2022/10/21 00:39:14;;;;;;;;;;;10.40;99.90;;;;;;6119408;23;19921;-66
2022/10/21 00:41:40;;;;;;;;;;;10.30;99.90;;;;;;6119329;23;19921;-65
2022/10/21 00:44:06;;;;;;;;;;;10.40;99.90;;;;;;6119283;23;20390;-65
2022/10/21 00:46:36;;;;;;;;;;;10.20;99.90;;;;;;6119888;23;19924;-65
2022/10/21 00:49:04;;;;;;;;;;;10.20;99.90;;;;;;6119728;23;20248;-66
2022/10/21 00:51:29;;;;;;;;;;;10.20;99.90;;;;;;6119938;23;19943;-65
2022/10/21 00:53:56;;;;;;;;;;;10.10;99.90;;;;;;6118884;23;20247;-66
2022/10/21 00:56:24;;;;;;;;;;;10.10;99.90;;;;;;6119537;23;20347;-65
2022/10/21 00:58:50;;;;;;;;;;;10.20;99.90;;;;;;6119584;23;20344;-65
2022/10/21 01:01:15;;;;;;;;;;;10.20;99.90;;;;;;6119541;23;19966;-65
2022/10/21 01:03:41;;;;;;;;;;;10.20;99.90;;;;;;6119149;23;19921;-66
2022/10/21 01:06:08;;;;;;;;;;;10.20;99.90;;;;;;6115369;23;19921;-66
2022/10/21 01:08:34;;;;;;;;;;;10.30;99.90;;;;;;6118264;23;19925;-65
2022/10/21 01:11:00;;;;;;;;;;;10.20;99.90;;;;;;6118707;23;19925;-65
2022/10/21 01:13:45;;;;;;;;;;;10.20;99.90;;;;;;6118110;23;19970;-63
2022/10/21 01:16:29;;;;;;;;;;;10.20;99.90;;;;;;6118065;23;19921;-64
2022/10/21 01:18:57;;;;;;;;;;;10.20;99.90;;;;;;6117716;23;20355;-63
2022/10/21 01:21:29;;;;;;;;;;;10.20;99.90;;;;;;6119020;23;19929;-63
2022/10/21 01:24:13;;;;;;;;;;;10.20;99.90;;;;;;6119506;23;19925;-63
2022/10/21 01:26:57;;;;;;;;;;;10.30;99.90;;;;;;6118272;23;20256;-63
2022/10/21 01:29:23;;;;;;;;;;;10.30;99.90;;;;;;6118599;23;19931;-67
2022/10/21 01:31:55;;;;;;;;;;;10.30;99.90;;;;;;6119002;23;19968;-63
2022/10/21 01:34:23;;;;;;;;;;;10.20;99.90;;;;;;6118417;23;19928;-64
2022/10/21 01:36:49;;;;;;;;;;;10.20;99.90;;;;;;6116808;23;20333;-63
2022/10/21 01:39:17;;;;;;;;;;;10.10;99.90;;;;;;6118458;23;20000;-67
2022/10/21 01:41:46;;;;;;;;;;;10.20;99.90;;;;;;6118982;23;19928;-63
2022/10/21 01:44:24;;;;;;;;;;;10.30;99.90;;;;;;6118500;23;20292;-67
2022/10/21 01:46:53;;;;;;;;;;;10.30;99.90;;;;;;6118909;23;19932;-64
2022/10/21 01:49:25;;;;;;;;;;;10.30;99.90;;;;;;6118741;23;19956;-65
2022/10/21 01:51:52;;;;;;;;;;;10.70;99.90;;;;;;6118294;23;19928;-65
2022/10/21 01:54:28;;;;;;;;;;;10.90;99.90;;;;;;6118062;23;19928;-65
2022/10/21 01:56:54;;;;;;;;;;;10.40;99.90;;;;;;6119090;23;20325;-65
2022/10/21 01:59:20;;;;;;;;;;;10.40;99.90;;;;;;6119104;23;19931;-63
2022/10/21 02:01:47;;;;;;;;;;;10.40;99.90;;;;;;6119177;23;19921;-67
2022/10/21 02:04:14;;;;;;;;;;;10.30;99.90;;;;;;6118852;23;19921;-63
2022/10/21 02:06:39;;;;;;;;;;;10.30;99.90;;;;;;6118738;23;19925;-65
2022/10/21 02:09:05;;;;;;;;;;;10.30;99.90;;;;;;6118129;23;20035;-65
2022/10/21 02:11:32;;;;;;;;;;;10.30;99.90;;;;;;6118601;23;19925;-66
2022/10/21 02:14:04;;;;;;;;;;;10.40;99.90;;;;;;6118517;23;19988;-65
2022/10/21 02:16:31;;;;;;;;;;;10.50;99.90;;;;;;6118685;23;19925;-65
2022/10/21 02:18:58;;;;;;;;;;;10.50;99.90;;;;;;6118358;23;20354;-65
2022/10/21 02:21:25;;;;;;;;;;;10.50;99.90;;;;;;6117461;23;19925;-66
2022/10/21 02:23:53;;;;;;;;;;;10.50;99.90;;;;;;6118667;23;19925;-65
2022/10/21 02:26:20;;;;;;;;;;;10.50;99.90;;;;;;6118403;23;19988;-64
2022/10/21 02:28:46;;;;;;;;;;;10.60;99.90;;;;;;6118765;23;19925;-67
2022/10/21 02:31:17;;;;;;;;;;;10.70;99.90;;;;;;6118815;23;19925;-66
2022/10/21 02:33:43;;;;;;;;;;;10.80;99.90;;;;;;6118790;23;19925;-68
2022/10/21 02:36:17;;;;;;;;;;;10.90;99.90;;;;;;6118810;23;19932;-65
2022/10/21 02:38:46;;;;;;;;;;;10.90;99.90;;;;;;6118889;23;19921;-67
2022/10/21 02:41:13;;;;;;;;;;;11.00;99.90;;;;;;6118257;23;19948;-67
2022/10/21 02:43:42;;;;;;;;;;;11.10;99.90;;;;;;6118336;23;19932;-64
2022/10/21 02:46:09;;;;;;;;;;;11.10;99.90;;;;;;6118508;23;19931;-62
2022/10/21 02:48:36;;;;;;;;;;;11.20;99.90;;;;;;6117910;23;19925;-66
2022/10/21 02:51:02;;;;;;;;;;;11.30;99.90;;;;;;6118410;23;19931;-64
2022/10/21 02:53:28;;;;;;;;;;;11.20;99.90;;;;;;6119155;23;19921;-64
2022/10/21 02:55:54;;;;;;;;;;;11.20;99.90;;;;;;6118268;23;19925;-65
2022/10/21 02:58:19;;;;;;;;;;;11.30;99.90;;;;;;6119056;23;20043;-66
2022/10/21 03:00:45;;;;;;;;;;;11.30;99.90;;;;;;6118077;23;19925;-66
2022/10/21 03:03:10;;;;;;;;;;;11.40;99.90;;;;;;6118365;23;20043;-62
2022/10/21 03:05:36;;;;;;;;;;;11.50;99.90;;;;;;6118114;23;19925;-63
2022/10/21 03:08:01;;;;;;;;;;;11.60;99.90;;;;;;6118390;23;20339;-62
2022/10/21 03:10:28;;;;;;;;;;;11.70;99.90;;;;;;6118159;23;19932;-62
2022/10/21 03:12:53;;;;;;;;;;;11.80;99.90;;;;;;6119128;23;19921;-63
2022/10/21 03:15:19;;;;;;;;;;;11.90;99.90;;;;;;6119275;23;19928;-62
2022/10/21 03:17:45;;;;;;;;;;;12.00;99.90;;;;;;6118983;23;19949;-62
2022/10/21 03:20:10;;;;;;;;;;;12.20;99.90;;;;;;6117852;23;20240;-62
2022/10/21 03:22:36;;;;;;;;;;;12.20;99.90;;;;;;6117973;23;19982;-62
2022/10/21 03:25:02;;;;;;;;;;;12.20;99.90;;;;;;6115577;23;19925;-62
2022/10/21 03:27:27;;;;;;;;;;;12.30;99.90;;;;;;6118364;23;20388;-63
2022/10/21 03:29:53;;;;;;;;;;;12.40;99.90;;;;;;6118420;23;20341;-62
2022/10/21 03:32:18;;;;;;;;;;;12.50;99.90;;;;;;6120227;23;20301;-62
2022/10/21 03:34:44;;;;;;;;;;;12.50;99.90;;;;;;6119727;23;20002;-62
2022/10/21 03:37:09;;;;;;;;;;;12.60;99.90;;;;;;6119444;23;19966;-62
2022/10/21 03:39:35;;;;;;;;;;;12.50;99.90;;;;;;6119410;23;19921;-62
2022/10/21 03:42:00;;;;;;;;;;;12.50;99.90;;;;;;6119846;23;19928;-62
2022/10/21 03:44:26;;;;;;;;;;;12.50;99.90;;;;;;6119166;23;19925;-62
2022/10/21 03:46:51;;;;;;;;;;;12.50;99.90;;;;;;6119384;23;19959;-62
2022/10/21 03:49:17;;;;;;;;;;;12.50;99.90;;;;;;6117926;23;19921;-62
2022/10/21 03:51:42;;;;;;;;;;;12.50;99.90;;;;;;6120006;23;19929;-62
2022/10/21 03:54:08;;;;;;;;;;;12.40;99.90;;;;;;6120426;23;19929;-62
2022/10/21 03:56:34;;;;;;;;;;;12.40;99.90;;;;;;6119593;23;19956;-65
2022/10/21 03:58:59;;;;;;;;;;;12.40;99.90;;;;;;6119636;23;19925;-66
2022/10/21 04:01:25;;;;;;;;;;;12.40;99.90;;;;;;6119708;23;19917;-64
2022/10/21 04:03:50;;;;;;;;;;;12.30;99.90;;;;;;6119272;23;19947;-66
2022/10/21 04:06:16;;;;;;;;;;;12.30;99.90;;;;;;6118649;23;19925;-65
2022/10/21 04:08:41;;;;;;;;;;;12.30;99.90;;;;;;6119844;23;19990;-66
2022/10/21 04:11:07;;;;;;;;;;;12.20;99.90;;;;;;6119759;23;19975;-66
2022/10/21 04:13:33;;;;;;;;;;;12.20;99.90;;;;;;6119273;23;19925;-65
2022/10/21 04:15:59;;;;;;;;;;;12.20;99.90;;;;;;6120040;23;19925;-64
2022/10/21 04:18:25;;;;;;;;;;;12.20;99.90;;;;;;6119193;23;19990;-64
2022/10/21 04:20:50;;;;;;;;;;;12.20;99.90;;;;;;6119056;23;20030;-65
2022/10/21 04:23:16;;;;;;;;;;;12.20;99.90;;;;;;6120051;23;20351;-66
2022/10/21 04:25:42;;;;;;;;;;;12.10;99.90;;;;;;6120196;23;20335;-65
2022/10/21 04:28:08;;;;;;;;;;;12.10;99.90;;;;;;6119393;23;19921;-66
2022/10/21 04:30:34;;;;;;;;;;;12.10;99.90;;;;;;6119674;23;19940;-73
2022/10/21 04:32:59;;;;;;;;;;;12.10;99.90;;;;;;6118694;23;19925;-73
2022/10/21 04:35:25;;;;;;;;;;;12.10;99.90;;;;;;6119250;23;19952;-72
2022/10/21 04:37:50;;;;;;;;;;;12.10;99.90;;;;;;6119787;23;19925;-72
2022/10/21 04:40:16;;;;;;;;;;;12.10;99.90;;;;;;6119416;23;19921;-73
2022/10/21 04:42:45;;;;;;;;;;;12.10;99.90;;;;;;6118989;23;19982;-73
2022/10/21 04:45:11;;;;;;;;;;;12.10;99.90;;;;;;6119646;23;19928;-73
2022/10/21 04:47:36;;;;;;;;;;;12.00;99.90;;;;;;6117412;23;19921;-67
2022/10/21 04:50:02;;;;;;;;;;;12.00;99.90;;;;;;6119712;23;19925;-65
2022/10/21 04:52:28;;;;;;;;;;;12.00;99.90;;;;;;6119362;23;20343;-67
2022/10/21 04:54:53;;;;;;;;;;;12.00;99.90;;;;;;6119501;23;19928;-64
2022/10/21 04:57:19;;;;;;;;;;;12.00;99.90;;;;;;6119302;23;19929;-63
2022/10/21 04:59:44;;;;;;;;;;;11.90;99.90;;;;;;6119254;23;19974;-63
2022/10/21 05:02:10;;;;;;;;;;;11.90;99.90;;;;;;6118815;23;19921;-67
2022/10/21 05:04:35;;;;;;;;;;;11.90;99.90;;;;;;6119840;23;19931;-67
2022/10/21 05:07:01;;;;;;;;;;;11.90;99.90;;;;;;6119266;23;19955;-65
2022/10/21 05:09:27;;;;;;;;;;;11.80;99.90;;;;;;6119302;23;19921;-65
2022/10/21 05:11:52;;;;;;;;;;;11.80;99.90;;;;;;6119751;23;20358;-65
2022/10/21 05:14:18;;;;;;;;;;;11.80;99.90;;;;;;6118795;23;20309;-66
2022/10/21 05:16:43;;;;;;;;;;;11.80;99.90;;;;;;6118747;23;20336;-68
2022/10/21 05:19:10;;;;;;;;;;;11.80;99.90;;;;;;6119174;23;19971;-64
2022/10/21 05:21:35;;;;;;;;;;;11.80;99.90;;;;;;6118780;23;19921;-63
2022/10/21 05:24:01;;;;;;;;;;;11.80;99.90;;;;;;6119444;23;19932;-66
2022/10/21 05:26:27;;;;;;;;;;;11.80;99.90;;;;;;6119551;23;20008;-64
2022/10/21 05:28:53;;;;;;;;;;;11.80;99.90;;;;;;6119420;23;20236;-65
2022/10/21 05:31:19;;;;;;;;;;;11.70;99.90;;;;;;6118921;23;19931;-63
2022/10/21 05:33:44;;;;;;;;;;;11.80;99.90;;;;;;6119205;23;19921;-65
2022/10/21 05:36:10;;;;;;;;;;;11.70;99.90;;;;;;6118860;23;20000;-67
2022/10/21 05:38:35;;;;;;;;;;;11.70;99.90;;;;;;6119166;23;19921;-66
2022/10/21 05:41:01;;;;;;;;;;;11.60;99.90;;;;;;6119874;23;19963;-66
2022/10/21 05:43:27;;;;;;;;;;;11.60;99.90;;;;;;6119265;23;19932;-66
2022/10/21 05:45:52;;;;;;;;;;;11.60;99.90;;;;;;6119417;23;19932;-66
2022/10/21 05:48:18;;;;;;;;;;;11.60;99.90;;;;;;6119115;23;19921;-65
2022/10/21 05:50:44;;;;;;;;;;;11.60;99.90;;;;;;6114109;23;20248;-68
2022/10/21 05:53:10;;;;;;;;;;;11.50;99.90;;;;;;6118140;23;19921;-66
2022/10/21 05:55:35;;;;;;;;;;;11.50;99.90;;;;;;6118843;23;19932;-64
2022/10/21 05:58:01;;;;;;;;;;;11.50;99.90;;;;;;6118917;23;19927;-64
2022/10/21 06:00:27;;;;;;;;;;;11.50;99.90;;;;;;6118711;23;19921;-67
2022/10/21 06:02:52;;;;;;;;;;;11.50;99.90;;;;;;6118856;23;19925;-64
2022/10/21 06:05:19;;;;;;;;;;;11.50;99.90;;;;;;6118791;23;19996;-63
2022/10/21 06:07:45;;;;;;;;;;;11.40;99.90;;;;;;6117029;23;20351;-64
2022/10/21 06:10:11;;;;;;;;;;;11.60;99.90;;;;;;6118788;23;19959;-73
2022/10/21 06:12:36;;;;;;;;;;;11.40;99.90;;;;;;6118802;23;19995;-69
2022/10/21 06:15:02;;;;;;;;;;;11.40;99.90;;;;;;6118561;23;20287;-72
2022/10/21 06:17:29;;;;;;;;;;;11.30;99.90;;;;;;6115278;23;20137;-70
2022/10/21 06:19:54;;;;;;;;;;;11.30;99.90;;;;;;6118688;23;19987;-72
2022/10/21 06:22:20;;;;;;;;;;;11.20;99.90;;;;;;6117798;23;19944;-64
2022/10/21 06:24:45;;;;;;;;;;;11.30;99.90;;;;;;6116807;23;19994;-63
2022/10/21 06:27:12;;;;;;;;;;;11.20;99.90;;;;;;6118212;23;19929;-63
2022/10/21 06:29:38;;;;;;;;;;;11.20;99.90;;;;;;6115811;23;19925;-63
2022/10/21 06:32:04;;;;;;;;;;;11.20;99.90;;;;;;6116171;23;20019;-65
2022/10/21 06:34:29;;;;;;;;;;;11.20;99.90;;;;;;6118584;23;19929;-63
2022/10/21 06:36:55;;;;;;;;;;;11.20;99.90;;;;;;6118527;23;19975;-63
2022/10/21 06:39:20;;;;;;;;;;;11.60;99.90;;;;;;6118324;23;20332;-64
2022/10/21 06:41:46;;;;;;;;;;;11.20;99.90;;;;;;6119234;23;20291;-64
2022/10/21 06:44:11;;;;;;;;;;;11.20;99.90;;;;;;6118867;23;19995;-63
2022/10/21 06:46:37;;;;;;;;;;;11.40;99.90;;;;;;6119565;23;19949;-64
2022/10/21 06:49:02;;;;;;;;;;;11.20;99.90;;;;;;6117374;23;19925;-63
2022/10/21 06:51:28;;;;;;;;;;;11.30;99.90;;;;;;6118936;23;19921;-63
2022/10/21 06:53:54;;;;;;;;;;;11.60;99.90;;;;;;6116440;23;19925;-63
2022/10/21 06:56:21;;;;;;;;;;;11.20;99.90;;;;;;6116932;23;20252;-63
2022/10/21 06:58:47;;;;;;;;;;;11.20;99.90;;;;;;6117295;23;19925;-64
2022/10/21 07:01:16;;;;;;;;;;;11.30;99.90;;;;;;6118778;23;19967;-63
2022/10/21 07:03:42;;;;;;;;;;;11.30;99.90;;;;;;6118484;23;20014;-64
2022/10/21 07:06:07;;;;;;;;;;;11.30;99.90;;;;;;6118770;23;20316;-63
2022/10/21 07:08:33;;;;;;;;;;;11.30;99.90;;;;;;6118522;23;20481;-63
2022/10/21 07:10:58;;;;;;;;;;;11.40;99.90;;;;;;6119009;23;19944;-63
2022/10/21 07:13:24;;;;;;;;;;;11.40;99.90;;;;;;6118452;23;19925;-62
2022/10/21 07:16:17;;;;;;;;;;;11.40;99.90;;;;;;6119105;23;19967;-63
2022/10/21 07:18:43;;;;;;;;;;;11.40;99.90;;;;;;6119833;23;19925;-63
2022/10/21 07:21:10;;;;;;;;;;;11.50;99.90;;;;;;6118035;23;20014;-63
2022/10/21 07:23:35;;;;;;;;;;;11.70;99.90;;;;;;6119139;23;19931;-63
2022/10/21 07:26:02;;;;;;;;;;;11.70;99.90;;;;;;6116597;23;19995;-64
2022/10/21 07:28:27;;;;;;;;;;;11.70;99.90;;;;;;6118644;23;20246;-63
2022/10/21 07:30:53;;;;;;;;;;;11.70;99.90;;;;;;6117470;23;19992;-64
2022/10/21 07:33:18;;;;;;;;;;;11.80;99.90;;;;;;6114509;23;20229;-64
2022/10/21 07:35:44;;;;;;;;;;;12.40;99.90;;;;;;6117320;23;19928;-66
2022/10/21 07:38:11;;;;;;;;;;;11.90;99.90;;;;;;6118643;23;19921;-64
2022/10/21 07:40:40;;;;;;;;;;;11.90;99.90;;;;;;6118310;23;19925;-73
2022/10/21 07:43:06;;;;;;;;;;;12.00;99.90;;;;;;6118077;23;20000;-71
2022/10/21 07:45:32;;;;;;;;;;;12.00;99.90;;;;;;6118153;23;19952;-73
2022/10/21 07:47:57;;;;;;;;;;;12.00;99.90;;;;;;6118155;23;19921;-73
2022/10/21 07:50:23;;;;;;;;;;;12.10;99.90;;;;;;6113980;23;20758;-73
2022/10/21 07:52:49;;;;;;;;;;;12.10;99.90;;;;;;6114836;23;19953;-73
2022/10/21 07:55:15;;;;;;;;;;;12.20;99.90;;;;;;6116196;23;19983;-73
2022/10/21 07:57:41;;;;;;;;;;;12.20;99.90;;;;;;6116875;23;20413;-73
2022/10/21 08:00:07;;;;;;;;;;;12.20;99.90;;;;;;6114068;23;19921;-70
2022/10/21 08:02:32;;;;;;;;;;;12.30;99.90;;;;;;6115881;23;19932;-73
2022/10/21 08:04:58;;;;;;;;;;;12.40;99.90;;;;;;6112942;23;19925;-73
2022/10/21 08:07:24;;;;;;;;;;;12.50;99.90;;;;;;6109136;23;19928;-69
2022/10/21 08:09:49;;;;;;;;;;;12.50;99.90;;;;;;6110790;23;19936;-64
2022/10/21 08:12:15;;;;;;;;;;;12.70;99.90;;;;;;6113626;23;19925;-63
2022/10/21 08:14:40;;;;;;;;;;;12.80;99.90;;;;;;6112607;23;19964;-68
2022/10/21 08:17:06;;;;;;;;;;;12.90;99.90;;;;;;6114041;23;19925;-66
2022/10/21 08:19:31;;;;;;;;;;;13.00;99.90;;;;;;6114162;23;19925;-64
2022/10/21 08:21:57;;;;;;;;;;;13.10;99.90;;;;;;6113797;23;20423;-70
2022/10/21 08:24:23;;;;;;;;;;;13.50;99.90;;;;;;6114933;23;19983;-67
2022/10/21 08:26:50;;;;;;;;;;;13.40;99.90;;;;;;6114187;23;19929;-70
2022/10/21 08:29:16;;;;;;;;;;;13.50;99.90;;;;;;6114486;23;19925;-72
2022/10/21 08:31:41;;;;;;;;;;;13.60;99.90;;;;;;6113918;23;19932;-64
2022/10/21 08:34:07;;;;;;;;;;;13.80;99.90;;;;;;6114845;23;19924;-72
2022/10/21 08:36:33;;;;;;;;;;;14.00;99.90;;;;;;6114377;23;19929;-64
2022/10/21 08:38:58;;;;;;;;;;;14.10;99.90;;;;;;6115214;23;19925;-74
2022/10/21 08:41:30;;;;;;;;;;;14.20;99.90;;;;;;6113577;23;19932;-65
2022/10/21 08:43:59;;;;;;;;;;;14.30;99.90;;;;;;6114207;23;19925;-73
2022/10/21 08:46:32;;;;;;;;;;;14.30;99.90;;;;;;6114136;23;19972;-70
2022/10/21 08:49:12;;;;;;;;;;;14.40;99.90;;;;;;6113847;23;19931;-70
2022/10/21 08:51:44;;;;;;;;;;;14.50;99.90;;;;;;6113367;23;19932;-63
2022/10/21 08:54:13;;;;;;;;;;;14.70;99.90;;;;;;6113227;23;19936;-63
2022/10/21 08:56:39;;;;;;;;;;;14.80;99.90;;;;;;6114231;23;19976;-62
2022/10/21 08:59:09;;;;;;;;;;;14.90;99.90;;;;;;6114636;23;20003;-63
2022/10/21 09:01:41;;;;;;;;;;;14.80;99.90;;;;;;6114645;23;19925;-63
2022/10/21 09:04:15;;;;;;;;;;;14.90;99.90;;;;;;6114526;23;19996;-63
2022/10/21 09:07:04;;;;;;;;;;;15.00;99.90;;;;;;6112340;23;19925;-64
2022/10/21 09:09:46;;;;;;;;;;;15.20;99.90;;;;;;6115114;23;19964;-63
2022/10/21 09:12:11;;;;;;;;;;;15.30;99.90;;;;;;6113735;23;19925;-63
2022/10/21 09:14:55;;;;;;;;;;;15.40;99.90;;;;;;6114348;23;19925;-63
2022/10/21 09:17:53;;;;;;;;;;;15.60;99.90;;;;;;6113350;23;19924;-71
2022/10/21 09:20:19;;;;;;;;;;;16.00;99.90;;;;;;6131884;23;19925;-73
2022/10/21 09:22:55;;;;;;;;;;;16.30;99.90;;;;;;6113930;23;19936;-64
2022/10/21 09:25:25;;;;;;;;;;;16.60;99.90;;;;;;6114996;23;19921;-64
2022/10/21 09:27:51;;;;;;;;;;;16.80;99.90;;;;;;6114466;23;19992;-73
2022/10/21 09:30:20;;;;;;;;;;;17.00;99.90;;;;;;6114212;23;19924;-64
2022/10/21 09:32:49;;;;;;;;;;;17.10;99.90;;;;;;6114678;23;19924;-66
2022/10/21 09:35:34;;;;;;;;;;;17.50;99.90;;;;;;6114556;23;20259;-64
2022/10/21 09:38:02;;;;;;;;;;;17.60;99.90;;;;;;6110300;23;19929;-64
2022/10/21 09:40:29;;;;;;;;;;;17.60;99.90;;;;;;6112003;23;20244;-64
2022/10/21 09:42:57;;;;;;;;;;;17.60;99.90;;;;;;6113992;23;19925;-71
2022/10/21 09:45:37;;;;;;;;;;;17.70;99.90;;;;;;6114099;23;19931;-67
2022/10/21 09:48:18;;;;;;;;;;;17.40;99.90;;;;;;6114294;23;20368;-64
2022/10/21 09:50:49;;;;;;;;;;;17.60;99.90;;;;;;6114236;23;19925;-63
2022/10/21 09:53:32;;;;;;;;;;;17.80;99.90;;;;;;6115026;23;20229;-64
2022/10/21 09:56:30;;;;;;;;;;;17.90;99.90;;;;;;6114956;23;19931;-68
2022/10/21 09:59:06;;;;;;;;;;;18.10;99.90;;;;;;6131879;23;19952;-64
2022/10/21 10:01:32;;;;;;;;;;;18.10;99.90;;;;;;6115158;23;19925;-63
2022/10/21 10:03:58;;;;;;;;;;;18.10;99.90;;;;;;6115540;23;19924;-64
2022/10/21 10:06:34;;;;;;;;;;;18.00;99.90;;;;;;6114521;23;19925;-65
2022/10/21 10:09:06;;;;;;;;;;;17.90;99.90;;;;;;6113296;23;20299;-64
2022/10/21 10:11:31;;;;;;;;;;;18.20;99.90;;;;;;6114811;23;19932;-64
2022/10/21 10:14:15;;;;;;;;;;;18.40;99.90;;;;;;6114374;23;19925;-63
2022/10/21 10:16:40;;;;;;;;;;;18.40;99.90;;;;;;6115190;23;19995;-68
2022/10/21 10:19:09;;;;;;;;;;;18.50;99.90;;;;;;6113091;23;19928;-64
2022/10/21 10:21:35;;;;;;;;;;;18.50;99.90;;;;;;6110501;23;19953;-67
2022/10/21 10:24:01;;;;;;;;;;;18.70;99.90;;;;;;6115262;23;20047;-64
2022/10/21 10:26:28;;;;;;;;;;;18.70;99.90;;;;;;6115663;23;19925;-64
2022/10/21 10:28:59;;;;;;;;;;;18.70;99.90;;;;;;6115228;23;20093;-64
2022/10/21 10:31:26;;;;;;;;;;;18.50;99.90;;;;;;6114033;23;20280;-64
2022/10/21 10:33:57;;;;;;;;;;;18.50;99.90;;;;;;6109157;23;19925;-64
2022/10/21 10:36:25;;;;;;;;;;;18.40;99.90;;;;;;6114804;23;19925;-68
2022/10/21 10:38:52;;;;;;;;;;;18.40;99.90;;;;;;6113913;23;19932;-64
2022/10/21 10:41:18;;;;;;;;;;;18.40;99.90;;;;;;6114036;23;19932;-64
2022/10/21 10:43:46;;;;;;;;;;;18.60;99.90;;;;;;6114680;23;19929;-64
2022/10/21 10:46:22;;;;;;;;;;;18.40;99.90;;;;;;6113823;23;19967;-67
2022/10/21 10:48:49;;;;;;;;;;;18.60;99.90;;;;;;6113168;23;19960;-67
2022/10/21 10:51:26;;;;;;;;;;;18.60;99.90;;;;;;6114469;23;20603;-66
2022/10/21 10:54:01;;;;;;;;;;;18.60;99.90;;;;;;6113854;23;20391;-65
2022/10/21 10:56:29;;;;;;;;;;;18.80;99.90;;;;;;6114025;23;19924;-69
2022/10/21 10:59:14;;;;;;;;;;;18.90;99.90;;;;;;6114746;23;19932;-65
2022/10/21 11:01:52;;;;;;;;;;;19.00;99.90;;;;;;6114839;23;19929;-67
2022/10/21 11:04:27;;;;;;;;;;;18.90;99.90;;;;;;6113957;23;19971;-65
2022/10/21 11:06:57;;;;;;;;;;;18.90;99.90;;;;;;6114509;23;19931;-68
2022/10/21 11:09:23;;;;;;;;;;;18.90;99.90;;;;;;6113746;23;20478;-68
2022/10/21 11:11:52;;;;;;;;;;;18.80;99.90;;;;;;6113804;23;19932;-65
2022/10/21 11:14:18;;;;;;;;;;;18.80;99.90;;;;;;6113393;23;19932;-67
2022/10/21 11:16:44;;;;;;;;;;;18.70;99.90;;;;;;6114481;23;19933;-70
2022/10/21 11:19:28;;;;;;;;;;;18.60;99.90;;;;;;6114881;23;19929;-66
2022/10/21 11:22:00;;;;;;;;;;;18.70;99.90;;;;;;6114507;23;20359;-64
2022/10/21 11:24:37;;;;;;;;;;;18.90;99.90;;;;;;6114898;23;19925;-65
2022/10/21 11:27:07;;;;;;;;;;;18.90;99.90;;;;;;6115092;23;19925;-64
2022/10/21 11:29:48;;;;;;;;;;;19.00;99.90;;;;;;6114551;23;20343;-64
2022/10/21 11:32:13;;;;;;;;;;;19.10;99.90;;;;;;6114595;23;19986;-64
2022/10/21 11:34:47;;;;;;;;;;;19.20;99.90;;;;;;6113974;23;20041;-65
2022/10/21 11:37:31;;;;;;;;;;;19.10;99.90;;;;;;6114831;23;20347;-65
2022/10/21 11:40:08;;;;;;;;;;;19.10;99.90;;;;;;6114137;23;19925;-68
2022/10/21 11:42:34;;;;;;;;;;;19.30;99.90;;;;;;6114220;23;19932;-64
2022/10/21 11:45:38;;;;;;;;;;;19.40;99.90;;;;;;6114061;23;20352;-64
2022/10/21 11:48:17;;;;;;;;;;;19.40;99.90;;;;;;6144745;23;20026;-64
2022/10/21 11:50:53;;;;;;;;;;;19.30;99.90;;;;;;6144778;23;20003;-65
2022/10/21 11:53:31;;;;;;;;;;;19.30;99.90;;;;;;6127576;23;19925;-66
2022/10/21 11:56:06;;;;;;;;;;;19.10;99.90;;;;;;6115889;23;20404;-65
2022/10/21 11:58:38;;;;;;;;;;;19.10;99.90;;;;;;6115199;23;19925;-66
2022/10/21 12:01:15;;;;;;;;;;;19.10;99.90;;;;;;6116166;23;19952;-71
2022/10/21 12:03:59;;;;;;;;;;;19.00;99.90;;;;;;6114597;23;19933;-66
2022/10/21 12:06:25;;;;;;;;;;;19.10;99.90;;;;;;6114816;23;19929;-72
2022/10/21 12:08:54;;;;;;;;;;;18.90;99.90;;;;;;6114378;23;19971;-75
2022/10/21 12:11:26;;;;;;;;;;;18.90;99.90;;;;;;6114869;23;19929;-65
2022/10/21 12:14:02;;;;;;;;;;;18.80;99.90;;;;;;6114417;23;19920;-68
2022/10/21 12:16:31;;;;;;;;;;;18.80;99.90;;;;;;6112213;23;19925;-65
2022/10/21 12:19:00;;;;;;;;;;;18.80;99.90;;;;;;6114215;23;19978;-75
2022/10/21 12:21:30;;;;;;;;;;;18.60;99.90;;;;;;6114432;23;19925;-73
2022/10/21 12:24:07;;;;;;;;;;;18.70;99.90;;;;;;6114371;23;19931;-66
2022/10/21 12:26:36;;;;;;;;;;;18.70;99.90;;;;;;6113986;23;20221;-65
2022/10/21 12:29:20;;;;;;;;;;;18.70;99.90;;;;;;6114693;23;19925;-65
2022/10/21 12:31:55;;;;;;;;;;;18.60;99.90;;;;;;6113610;23;20023;-66
2022/10/21 12:34:22;;;;;;;;;;;18.80;99.90;;;;;;6114203;23;20316;-65
2022/10/21 12:36:49;;;;;;;;;;;18.70;99.90;;;;;;6114101;23;20020;-69
2022/10/21 12:39:15;;;;;;;;;;;18.60;99.90;;;;;;6113852;23;19936;-65
2022/10/21 12:41:42;;;;;;;;;;;18.50;99.90;;;;;;6113921;23;19925;-75
2022/10/21 12:44:14;;;;;;;;;;;18.30;99.90;;;;;;6114273;23;19924;-65
2022/10/21 12:46:48;;;;;;;;;;;18.20;99.90;;;;;;6113398;23;19982;-64
2022/10/21 12:49:18;;;;;;;;;;;18.10;99.90;;;;;;6113597;23;19924;-66
2022/10/21 12:52:02;;;;;;;;;;;18.00;99.90;;;;;;6113685;23;19921;-64
2022/10/21 12:54:30;;;;;;;;;;;17.90;99.90;;;;;;6113784;23;20248;-66
2022/10/21 12:57:03;;;;;;;;;;;17.90;99.90;;;;;;6114978;23;19925;-64
2022/10/21 12:59:29;;;;;;;;;;;17.80;99.90;;;;;;6114019;23;19925;-64
2022/10/21 13:02:04;;;;;;;;;;;17.80;99.90;;;;;;6113461;23;20371;-64
2022/10/21 13:04:32;;;;;;;;;;;17.80;99.90;;;;;;6113743;23;19929;-64
2022/10/21 13:06:58;;;;;;;;;;;18.10;99.90;;;;;;6113269;23;19925;-65
2022/10/21 13:09:29;;;;;;;;;;;18.00;99.90;;;;;;6114315;23;19925;-65
2022/10/21 13:12:24;;;;;;;;;;;17.90;99.90;;;;;;6113877;23;19928;-65
2022/10/21 13:14:51;;;;;;;;;;;18.00;99.90;;;;;;6124490;23;20537;-64
2022/10/21 13:17:19;;;;;;;;;;;17.90;99.90;;;;;;6115001;23;19925;-64
2022/10/21 13:19:45;;;;;;;;;;;17.90;99.90;;;;;;6114541;23;20001;-65
2022/10/21 13:22:13;;;;;;;;;;;17.90;99.90;;;;;;6115044;23;19925;-65
2022/10/21 13:24:40;;;;;;;;;;;17.80;99.90;;;;;;6115391;23;19932;-69
2022/10/21 13:27:24;;;;;;;;;;;17.80;99.90;;;;;;6114814;23;19952;-66
2022/10/21 13:29:50;;;;;;;;;;;17.70;99.90;;;;;;6113761;23;19929;-65
2022/10/21 13:32:16;;;;;;;;;;;17.70;99.90;;;;;;6114798;23;19925;-65
2022/10/21 13:34:53;;;;;;;;;;;17.60;99.90;;;;;;6112790;23;20690;-70
2022/10/21 13:37:28;;;;;;;;;;;17.60;99.90;;;;;;6114521;23;19925;-68
2022/10/21 13:39:55;;;;;;;;;;;17.60;99.90;;;;;;6113284;23;19925;-65
2022/10/21 13:42:21;;;;;;;;;;;17.60;99.90;;;;;;6111923;23;19925;-67
2022/10/21 13:44:51;;;;;;;;;;;17.70;99.90;;;;;;6110183;23;19932;-66
2022/10/21 13:47:44;;;;;;;;;;;17.70;99.90;;;;;;6111401;23;19930;-65
2022/10/21 13:50:13;;;;;;;;;;;17.80;99.90;;;;;;6114104;23;19983;-66
2022/10/21 13:52:41;;;;;;;;;;;17.90;99.90;;;;;;6113239;23;19929;-75
2022/10/21 13:55:15;;;;;;;;;;;18.00;99.90;;;;;;6113653;23;19940;-68
2022/10/21 13:57:45;;;;;;;;;;;18.00;99.90;;;;;;6113666;23;20232;-73
2022/10/21 14:00:30;;;;;;;;;;;18.10;99.90;;;;;;6113385;23;19932;-70
2022/10/21 14:03:00;;;;;;;;;;;18.00;99.90;;;;;;6114869;23;19924;-66
2022/10/21 14:05:30;;;;;;;;;;;18.10;99.90;;;;;;6114378;23;19965;-67
2022/10/21 14:07:56;;;;;;;;;;;18.10;99.90;;;;;;6114349;23;19925;-64
2022/10/21 14:10:21;;;;;;;;;;;18.10;99.90;;;;;;6114666;23;19971;-65
2022/10/21 14:12:47;;;;;;;;;;;18.20;99.90;;;;;;6114990;23;19925;-64
2022/10/21 14:15:16;;;;;;;;;;;18.30;99.90;;;;;;6112605;23;20332;-67
2022/10/21 14:17:46;;;;;;;;;;;18.40;99.90;;;;;;6114391;23;19967;-64
2022/10/21 14:20:15;;;;;;;;;;;18.40;99.90;;;;;;6114529;23;20044;-64
2022/10/21 14:22:45;;;;;;;;;;;18.30;99.90;;;;;;6109348;23;19924;-65
2022/10/21 14:25:14;;;;;;;;;;;18.30;99.90;;;;;;6114237;23;19936;-64